Aeroporto :







RITROVATECI SU...

 
LOGIN :

Iscrizione | Disclaimer

   EN    FR    IT 

 









Sommario :    VFR   VFR Marginale   IFR   IFR Intensivo   IFR Molto Intensivo
Visibilità : 
Base nubi : 
>= 8 km
>= 3000ft
5 / 8 km
1000 / 3000 ft
1500m / 5 km
500 / 1000 ft
800 / 1500m
200 / 500 ft
< 800m
< 200 ft
Simboli :   Temporali  Nebbia  Neve Forte  Precipitazioni Forti  Vento > 20 kt






- Altitudine del aeroporto : 56 ft


KRKD - Knox County Regional

ULTIMO METAR :
  • 200456Z AUTO 00000KT 10SM CLR 08/M02 A3041 RMK AO2 SLP296 T00781022 401440056

METARs OBSOLETI :
  • 200356Z AUTO VRB03KT 10SM CLR 09/M02 A3039 RMK AO2 SLP293 T00891017
  • 200256Z AUTO VRB03KT 10SM CLR 08/M02 A3038 RMK AO2 SLP289 T00831017 53018

TAF KRKD
Valido dal 20 a 00 ore il 21 a 00 ore UTC


192331Z 2000/2024 34004KT P6SM SKC
FM201300 01009G15KT P6SM SKC
FIR KZBW / America del Nord



MetMap, La meteo Aeronautica in un colpo d'occhio ! - Copyright ORBIFLY Dicembre 2007 - Disclaimer

ORBIFLY MET'MAP TEAM :

Programmazione e sviluppo : Alexandra Zaïnal
Concezione : Baudouin d'Aumeries
Aiuto per la programmazione : Marc-Olivier Méhu
Supporto tecnico e logistico : Manuel Goepfert
Aiuto per la traduzione : Arnaldo La Scala

Contatto : metmap@orbifly.com




FONTI E CREDITI :

   NOAA